Startpagina
METAR-TAF:

METAR-TAF

Vliegvelden :

Luchthaven Larnaca

Larnaca, Cyprus

breedte: 34-53N, lengte: 033-38E, hoogte: 2 m

Actueel weer

Dit bericht is 54 minuten geleden gemaakt, om 23:00 UTC
Wind 4 kt uit het noordnoordwesten
Temperatuur 13°C
Vochtigheid 82%
Druk 1016 hPa
Zicht 10 km of meer
geen wolken onder 1500 m en geen cumulonimbus

METAR: LCLK 212300Z 33004KT CAVOK 13/10 Q1016 NOSIG

Tijdstip: 01:54 (23:54 UTC)

Verwachting

Dit bericht is 24 minuten geleden gemaakt, om 23:30 UTC
Verwachting geldig van 22 om 00 UTC tot 22 om 24 UTC
Wind 7 kt uit het noordnoordwesten
Zicht 10 km of meer
Weinig wolken op 3000 ft
Wijzigt naar
van 22 om 08 UTC tot 22 om 11 UTC
Wind 10 kt uit het oosten
Wijzigt naar
van 22 om 13 UTC tot 22 om 15 UTC
Wind 10 kt uit het zuidwesten
Wijzigt naar
van 22 om 17 UTC tot 22 om 20 UTC
Wind 7 kt uit het noordnoordwesten

TAF: LCLK 212330Z 2200/2224 33007KT 9999 FEW030 BECMG 2208/2211 08010KT BECMG 2213/2215 22010KT BECMG 2217/2220 33007KT

Waarnemingen en weersverwachtingen van meer dan 4000 vliegvelden (METAR en TAF).

De beschikbare stations zijn de gele en rode punten op de kaart.

Ga met uw muis naar het station om de naam te zien.

Klik dan om waarnemingen en weersverwachtingen te zien.

kaart wijzigen: klik op de groene knoppen met een zwart kruis om in te zoomen, op de groene knop met een streepje om uit te zoomen of op de groene pijlen voor aangrenzende kaarten.


METAR-TAF: